Time;durP1;ratioP1;P1;durP2;ratioP2;P2;SDS_P1;SDS_P2;PMS_P1;PMS_P2;Temp;Humidity;BMP_temperature;BMP_pressure;BME280_temperature;BME280_humidity;BME280_pressure;Samples;Min_cycle;Max_cycle;Signal;HPM_P1;HPM_P2
2023/07/24 00:00:48;;;;;;;1.70;1.40;;;;;;;;;;4990245;28;20213;-63
2023/07/24 00:03:13;;;;;;;3.58;1.60;;;;;;;;;;4992484;28;20692;-63
2023/07/24 00:05:39;;;;;;;3.45;1.70;;;;;;;;;;4992615;28;20221;-63
2023/07/24 00:08:04;;;;;;;3.15;1.75;;;;;;;;;;4990017;28;20240;-62
2023/07/24 00:10:29;;;;;;;2.22;1.50;;;;;;;;;;4991698;28;20213;-63
2023/07/24 00:12:54;;;;;;;2.88;1.98;;;;;;;;;;4992009;28;20213;-63
2023/07/24 00:15:20;;;;;;;4.60;1.90;;;;;;;;;;4991464;28;20574;-63
2023/07/24 00:17:45;;;;;;;2.63;1.80;;;;;;;;;;4990558;28;20212;-63
2023/07/24 00:20:11;;;;;;;3.83;2.13;;;;;;;;;;4990814;28;20577;-63
2023/07/24 00:22:36;;;;;;;2.50;1.83;;;;;;;;;;4991746;28;20220;-63
2023/07/24 00:25:02;;;;;;;3.58;1.80;;;;;;;;;;4989381;28;20216;-62
2023/07/24 00:27:27;;;;;;;4.43;1.85;;;;;;;;;;4991389;28;20295;-63
2023/07/24 00:29:52;;;;;;;2.08;1.63;;;;;;;;;;4992172;28;20219;-63
2023/07/24 00:32:18;;;;;;;4.00;1.80;;;;;;;;;;4990468;28;20213;-63
2023/07/24 00:34:43;;;;;;;2.70;1.95;;;;;;;;;;4990564;28;20224;-63
2023/07/24 00:37:08;;;;;;;3.25;1.70;;;;;;;;;;4991332;28;20264;-63
2023/07/24 00:39:34;;;;;;;3.50;2.15;;;;;;;;;;4991468;28;20245;-63
2023/07/24 00:41:59;;;;;;;4.30;2.30;;;;;;;;;;4989343;28;20649;-63
2023/07/24 00:44:24;;;;;;;2.60;1.92;;;;;;;;;;4991620;28;20217;-63
2023/07/24 00:46:50;;;;;;;4.50;2.10;;;;;;;;;;4991998;28;20288;-63
2023/07/24 00:49:15;;;;;;;3.40;2.10;;;;;;;;;;4988646;28;20685;-62
2023/07/24 00:51:41;;;;;;;6.10;2.20;;;;;;;;;;4991340;28;20221;-63
2023/07/24 00:54:06;;;;;;;3.40;2.35;;;;;;;;;;4991161;28;20278;-63
2023/07/24 00:56:32;;;;;;;5.70;2.63;;;;;;;;;;4990162;28;20306;-63
2023/07/24 00:58:57;;;;;;;4.95;2.40;;;;;;;;;;4990379;28;20698;-63
2023/07/24 01:01:22;;;;;;;2.95;2.00;;;;;;;;;;4991001;28;20216;-63
2023/07/24 01:03:48;;;;;;;2.78;1.98;;;;;;;;;;4990957;28;20304;-63
2023/07/24 01:06:13;;;;;;;3.50;2.17;;;;;;;;;;4970092;28;20583;-62
2023/07/24 01:08:38;;;;;;;3.72;2.00;;;;;;;;;;4991636;28;20665;-63
2023/07/24 01:11:07;;;;;;;4.50;2.03;;;;;;;;;;4990631;28;20706;-62
2023/07/24 01:13:32;;;;;;;3.08;1.83;;;;;;;;;;4972499;28;20554;-62
2023/07/24 01:16:03;;;;;;;3.88;1.90;;;;;;;;;;4973322;28;20231;-63
2023/07/24 01:18:28;;;;;;;2.38;1.80;;;;;;;;;;4972700;28;20221;-63
2023/07/24 01:20:55;;;;;;;3.17;1.90;;;;;;;;;;4990930;28;20214;-63
2023/07/24 01:23:29;;;;;;;4.60;2.10;;;;;;;;;;4987900;28;20283;-63
2023/07/24 01:25:57;;;;;;;7.78;2.55;;;;;;;;;;4973593;28;20216;-63
2023/07/24 01:28:22;;;;;;;4.28;2.17;;;;;;;;;;4992387;28;20255;-62
2023/07/24 01:30:47;;;;;;;4.68;2.00;;;;;;;;;;4992072;28;20197;-63
2023/07/24 01:33:14;;;;;;;3.45;2.40;;;;;;;;;;4989092;28;20213;-62
2023/07/24 01:35:39;;;;;;;4.13;2.42;;;;;;;;;;4990314;28;20916;-63
2023/07/24 01:38:04;;;;;;;5.85;2.40;;;;;;;;;;4971697;28;20217;-62
2023/07/24 01:40:29;;;;;;;3.72;2.65;;;;;;;;;;4969388;28;20252;-62
2023/07/24 01:42:55;;;;;;;3.65;2.63;;;;;;;;;;4962469;28;20244;-62
2023/07/24 01:45:20;;;;;;;4.57;2.75;;;;;;;;;;4961224;28;20610;-63
2023/07/24 01:47:45;;;;;;;4.18;2.83;;;;;;;;;;4980122;28;20291;-63
2023/07/24 01:50:11;;;;;;;4.40;3.08;;;;;;;;;;4978193;28;20224;-63
2023/07/24 01:52:36;;;;;;;5.25;3.05;;;;;;;;;;4972537;28;20336;-63
2023/07/24 01:55:01;;;;;;;3.90;2.80;;;;;;;;;;4973004;28;20867;-62
2023/07/24 01:57:27;;;;;;;4.60;3.28;;;;;;;;;;4971904;28;20428;-62
2023/07/24 01:59:52;;;;;;;6.20;3.20;;;;;;;;;;4979292;28;20563;-62
2023/07/24 02:02:17;;;;;;;4.82;3.17;;;;;;;;;;4980473;28;21228;-62
2023/07/24 02:04:43;;;;;;;4.65;3.10;;;;;;;;;;4980322;28;20232;-62
2023/07/24 02:07:08;;;;;;;9.90;3.40;;;;;;;;;;4978367;28;20224;-63
2023/07/24 02:09:33;;;;;;;6.38;3.20;;;;;;;;;;4980981;28;20217;-62
2023/07/24 02:11:59;;;;;;;6.78;3.30;;;;;;;;;;4980795;28;20213;-63
2023/07/24 02:14:24;;;;;;;4.30;2.90;;;;;;;;;;4972167;28;20597;-62
2023/07/24 02:16:49;;;;;;;6.13;2.90;;;;;;;;;;4972820;28;20333;-62
2023/07/24 02:19:15;;;;;;;5.47;2.90;;;;;;;;;;4972009;28;20213;-63
2023/07/24 02:21:40;;;;;;;4.20;3.03;;;;;;;;;;4976118;28;20213;-62
2023/07/24 02:24:06;;;;;;;4.82;3.13;;;;;;;;;;4979159;28;20634;-63
2023/07/24 02:26:31;;;;;;;6.68;3.00;;;;;;;;;;4980081;28;20217;-63
2023/07/24 02:28:56;;;;;;;3.97;2.67;;;;;;;;;;4979867;28;20221;-63
2023/07/24 02:31:21;;;;;;;4.88;2.97;;;;;;;;;;4978201;28;20708;-63
2023/07/24 02:33:47;;;;;;;4.82;2.92;;;;;;;;;;4979896;28;20712;-62
2023/07/24 02:36:12;;;;;;;6.07;2.95;;;;;;;;;;4977285;28;21078;-62
2023/07/24 02:38:37;;;;;;;3.70;2.83;;;;;;;;;;4970413;28;20220;-63
2023/07/24 02:41:03;;;;;;;5.57;2.90;;;;;;;;;;4971343;28;20216;-62
2023/07/24 02:43:28;;;;;;;5.80;3.00;;;;;;;;;;4975073;28;20271;-63
2023/07/24 02:45:53;;;;;;;7.00;3.10;;;;;;;;;;4978622;28;20237;-62
2023/07/24 02:48:19;;;;;;;4.65;3.08;;;;;;;;;;4978040;28;20975;-63
2023/07/24 02:50:44;;;;;;;5.07;3.35;;;;;;;;;;4979844;28;20283;-62
2023/07/24 02:53:10;;;;;;;6.57;3.20;;;;;;;;;;4979458;28;20209;-62
2023/07/24 02:55:35;;;;;;;4.78;3.17;;;;;;;;;;4959449;28;20225;-63
2023/07/24 02:58:01;;;;;;;6.63;3.45;;;;;;;;;;4979186;28;20275;-62
2023/07/24 03:00:26;;;;;;;5.85;3.85;;;;;;;;;;4972853;28;20223;-62
2023/07/24 03:02:53;;;;;;;7.85;4.30;;;;;;;;;;4969744;28;20253;-62
2023/07/24 03:05:18;;;;;;;6.53;4.50;;;;;;;;;;4971619;28;20213;-62
2023/07/24 03:07:43;;;;;;;6.25;4.90;;;;;;;;;;4979411;28;20221;-62
2023/07/24 03:10:09;;;;;;;7.57;4.78;;;;;;;;;;4977732;28;20305;-62
2023/07/24 03:12:34;;;;;;;8.98;5.35;;;;;;;;;;4978089;28;20221;-63
2023/07/24 03:14:59;;;;;;;8.82;5.47;;;;;;;;;;4979913;28;20267;-63
2023/07/24 03:17:25;;;;;;;8.10;5.43;;;;;;;;;;4978341;28;20217;-63
2023/07/24 03:19:50;;;;;;;7.32;5.30;;;;;;;;;;4977450;28;20210;-63
2023/07/24 03:22:15;;;;;;;6.82;5.50;;;;;;;;;;4974280;28;21615;-63
2023/07/24 03:24:41;;;;;;;9.40;5.90;;;;;;;;;;4970835;28;20713;-63
2023/07/24 03:27:06;;;;;;;7.38;5.72;;;;;;;;;;4969325;28;20257;-63
2023/07/24 03:29:31;;;;;;;9.75;5.68;;;;;;;;;;4975528;28;20217;-63
2023/07/24 03:31:57;;;;;;;7.13;5.50;;;;;;;;;;4978579;28;20350;-63
2023/07/24 03:34:22;;;;;;;6.55;5.28;;;;;;;;;;4986613;28;20316;-64
2023/07/24 03:36:47;;;;;;;7.55;5.72;;;;;;;;;;4986782;28;20303;-64
2023/07/24 03:39:12;;;;;;;6.47;5.30;;;;;;;;;;4988076;28;20686;-64
2023/07/24 03:41:38;;;;;;;7.55;5.55;;;;;;;;;;4988622;28;20210;-64
2023/07/24 03:44:04;;;;;;;8.00;5.72;;;;;;;;;;4985491;28;20236;-63
2023/07/24 03:46:29;;;;;;;7.25;5.50;;;;;;;;;;4988571;28;20221;-64
2023/07/24 03:48:54;;;;;;;9.32;5.70;;;;;;;;;;4989016;28;20244;-65
2023/07/24 03:51:19;;;;;;;9.55;6.13;;;;;;;;;;4986068;28;20488;-65
2023/07/24 03:53:45;;;;;;;6.88;5.45;;;;;;;;;;4987743;28;20714;-64
2023/07/24 03:56:10;;;;;;;7.38;5.57;;;;;;;;;;4988125;28;20319;-63
2023/07/24 03:58:36;;;;;;;8.95;6.43;;;;;;;;;;4987449;28;20308;-64
2023/07/24 04:01:02;;;;;;;8.10;5.80;;;;;;;;;;4986365;28;21284;-64
2023/07/24 04:03:27;;;;;;;7.25;6.07;;;;;;;;;;4988358;28;20227;-65
2023/07/24 04:05:53;;;;;;;9.48;6.05;;;;;;;;;;4970332;28;20256;-65
2023/07/24 04:08:18;;;;;;;9.13;5.80;;;;;;;;;;4986468;28;20205;-65
2023/07/24 04:10:43;;;;;;;8.32;5.93;;;;;;;;;;4988114;28;20283;-64
2023/07/24 04:13:09;;;;;;;7.75;5.95;;;;;;;;;;4987253;28;20744;-64
2023/07/24 04:15:34;;;;;;;8.68;5.57;;;;;;;;;;4989517;28;20243;-64
2023/07/24 04:17:59;;;;;;;7.25;5.65;;;;;;;;;;4983789;28;20213;-64
2023/07/24 04:20:24;;;;;;;6.57;4.55;;;;;;;;;;4975785;28;20224;-64
2023/07/24 04:22:50;;;;;;;8.82;4.90;;;;;;;;;;4978911;28;20696;-64
2023/07/24 04:25:15;;;;;;;8.20;5.00;;;;;;;;;;4978522;28;20620;-64
2023/07/24 04:27:41;;;;;;;8.20;4.60;;;;;;;;;;4976571;28;20809;-64
2023/07/24 04:30:06;;;;;;;6.22;4.50;;;;;;;;;;4970645;28;20217;-64
2023/07/24 04:32:32;;;;;;;6.78;4.63;;;;;;;;;;4971106;28;20943;-64
2023/07/24 04:34:57;;;;;;;6.55;4.40;;;;;;;;;;4969626;28;20205;-64
2023/07/24 04:37:22;;;;;;;4.75;4.05;;;;;;;;;;4976326;28;20236;-64
2023/07/24 04:39:48;;;;;;;6.35;4.57;;;;;;;;;;4978844;28;20210;-64
2023/07/24 04:42:13;;;;;;;8.30;4.82;;;;;;;;;;4980596;28;20217;-64
2023/07/24 04:44:38;;;;;;;9.98;4.30;;;;;;;;;;4979668;28;20209;-64
2023/07/24 04:47:04;;;;;;;6.05;4.53;;;;;;;;;;4982109;28;20229;-64
2023/07/24 04:49:29;;;;;;;5.80;4.55;;;;;;;;;;4981415;28;20699;-64
2023/07/24 04:51:55;;;;;;;6.78;4.53;;;;;;;;;;4975758;28;20703;-64
2023/07/24 04:54:20;;;;;;;7.47;4.20;;;;;;;;;;4972154;28;20224;-64
2023/07/24 04:56:45;;;;;;;7.72;4.57;;;;;;;;;;4973993;28;20267;-64
2023/07/24 04:59:11;;;;;;;5.32;4.25;;;;;;;;;;4977800;28;20245;-64
2023/07/24 05:01:36;;;;;;;6.15;4.32;;;;;;;;;;4979557;28;20580;-64
2023/07/24 05:04:01;;;;;;;6.78;4.05;;;;;;;;;;4981781;28;20221;-63
2023/07/24 05:06:27;;;;;;;8.25;4.30;;;;;;;;;;4981485;28;20587;-64
2023/07/24 05:08:53;;;;;;;8.00;5.10;;;;;;;;;;4979493;28;20565;-64
2023/07/24 05:11:18;;;;;;;11.75;4.68;;;;;;;;;;4981079;28;20217;-64
2023/07/24 05:13:43;;;;;;;8.43;4.72;;;;;;;;;;4979862;28;20225;-63
2023/07/24 05:16:09;;;;;;;7.00;4.57;;;;;;;;;;4971966;28;20526;-64
2023/07/24 05:18:34;;;;;;;8.73;4.82;;;;;;;;;;4973230;28;21279;-64
2023/07/24 05:20:59;;;;;;;5.88;4.63;;;;;;;;;;4975850;28;21121;-64
2023/07/24 05:23:24;;;;;;;6.78;4.97;;;;;;;;;;4980326;28;20684;-64
2023/07/24 05:25:57;;;;;;;6.78;5.07;;;;;;;;;;4986286;28;20284;-62
2023/07/24 05:28:23;;;;;;;12.48;5.38;;;;;;;;;;4990023;28;20225;-62
2023/07/24 05:30:48;;;;;;;6.75;5.30;;;;;;;;;;4989747;28;20667;-63
2023/07/24 05:33:13;;;;;;;7.10;5.45;;;;;;;;;;4988535;28;20227;-62
2023/07/24 05:35:39;;;;;;;11.75;5.72;;;;;;;;;;4990079;28;20224;-62
2023/07/24 05:38:04;;;;;;;9.38;6.25;;;;;;;;;;4989662;28;20213;-63
2023/07/24 05:40:29;;;;;;;8.57;6.40;;;;;;;;;;4989943;28;20220;-63
2023/07/24 05:42:55;;;;;;;9.70;6.50;;;;;;;;;;4987745;28;20225;-63
2023/07/24 05:45:20;;;;;;;10.48;6.63;;;;;;;;;;4992054;28;20232;-62
2023/07/24 05:47:45;;;;;;;9.13;6.93;;;;;;;;;;4991089;28;20232;-62
2023/07/24 05:50:13;;;;;;;11.27;7.10;;;;;;;;;;4989967;28;20297;-62
2023/07/24 05:52:38;;;;;;;12.82;7.10;;;;;;;;;;4986495;28;20225;-62
2023/07/24 05:55:04;;;;;;;15.30;8.70;;;;;;;;;;4989937;28;20619;-62
2023/07/24 05:57:29;;;;;;;14.10;8.45;;;;;;;;;;4989551;28;20235;-63
2023/07/24 05:59:55;;;;;;;10.50;8.10;;;;;;;;;;4987394;28;20764;-62
2023/07/24 06:02:21;;;;;;;10.77;7.93;;;;;;;;;;4988870;28;20213;-63
2023/07/24 06:04:46;;;;;;;11.63;8.70;;;;;;;;;;4989044;28;20220;-63
2023/07/24 06:07:12;;;;;;;15.50;8.00;;;;;;;;;;4991364;28;20217;-63
2023/07/24 06:09:37;;;;;;;9.07;7.20;;;;;;;;;;4991704;28;20221;-63
2023/07/24 06:12:02;;;;;;;11.30;8.25;;;;;;;;;;4988003;28;20201;-63
2023/07/24 06:14:28;;;;;;;9.18;7.65;;;;;;;;;;4988336;28;20216;-62
2023/07/24 06:16:53;;;;;;;10.77;8.33;;;;;;;;;;4989264;28;20459;-63
2023/07/24 06:19:18;;;;;;;12.70;8.73;;;;;;;;;;4988343;28;20677;-61
2023/07/24 06:21:44;;;;;;;11.70;7.68;;;;;;;;;;4987848;28;20256;-61
2023/07/24 06:24:12;;;;;;;13.60;8.00;;;;;;;;;;4989227;28;20677;-61
2023/07/24 06:26:37;;;;;;;16.50;8.43;;;;;;;;;;4988953;28;20299;-61
2023/07/24 06:29:02;;;;;;;12.63;8.60;;;;;;;;;;4986236;28;20605;-60
2023/07/24 06:31:28;;;;;;;11.52;8.50;;;;;;;;;;4989173;28;20678;-60
2023/07/24 06:33:53;;;;;;;10.68;8.00;;;;;;;;;;4988495;28;20228;-61
2023/07/24 06:36:18;;;;;;;14.68;8.57;;;;;;;;;;4983086;28;20229;-61
2023/07/24 06:38:44;;;;;;;12.60;8.77;;;;;;;;;;4988318;28;20209;-61
2023/07/24 06:41:09;;;;;;;11.98;8.52;;;;;;;;;;4988716;28;20228;-60
2023/07/24 06:43:35;;;;;;;10.60;8.90;;;;;;;;;;4989175;28;20233;-61
2023/07/24 06:46:00;;;;;;;12.70;8.63;;;;;;;;;;4987008;28;20228;-61
2023/07/24 06:48:25;;;;;;;12.95;9.48;;;;;;;;;;4988460;28;20259;-61
2023/07/24 06:50:51;;;;;;;16.15;8.98;;;;;;;;;;4987426;28;20672;-61
2023/07/24 06:53:16;;;;;;;10.88;8.80;;;;;;;;;;4985093;28;20244;-61
2023/07/24 06:55:41;;;;;;;12.10;8.60;;;;;;;;;;4987319;28;20244;-61
2023/07/24 06:58:07;;;;;;;13.00;8.77;;;;;;;;;;4986900;28;20734;-60
2023/07/24 07:00:32;;;;;;;12.20;8.80;;;;;;;;;;4986364;28;20225;-60
2023/07/24 07:02:57;;;;;;;12.13;8.57;;;;;;;;;;4986810;28;20296;-61
2023/07/24 07:05:23;;;;;;;14.27;9.50;;;;;;;;;;4987959;28;20351;-61
2023/07/24 07:07:48;;;;;;;12.30;8.75;;;;;;;;;;4988704;28;20225;-61
2023/07/24 07:10:13;;;;;;;11.80;8.57;;;;;;;;;;4986113;28;20863;-61
2023/07/24 07:12:39;;;;;;;13.27;9.63;;;;;;;;;;4989409;28;20576;-61
2023/07/24 07:15:04;;;;;;;15.63;9.88;;;;;;;;;;4987220;28;20252;-61
2023/07/24 07:17:29;;;;;;;13.43;9.30;;;;;;;;;;4987367;28;20235;-60
2023/07/24 07:19:56;;;;;;;12.27;9.23;;;;;;;;;;4988208;28;20283;-61
2023/07/24 07:22:21;;;;;;;12.50;9.50;;;;;;;;;;4987889;28;20221;-61
2023/07/24 07:24:47;;;;;;;13.60;8.77;;;;;;;;;;4988591;28;20591;-60
2023/07/24 07:27:12;;;;;;;12.40;9.32;;;;;;;;;;4987032;28;20221;-61
2023/07/24 07:29:38;;;;;;;13.35;9.48;;;;;;;;;;4987574;28;20217;-61
2023/07/24 07:32:03;;;;;;;12.75;9.55;;;;;;;;;;4988497;28;20217;-61
2023/07/24 07:34:28;;;;;;;12.80;9.52;;;;;;;;;;4986766;28;20216;-61
2023/07/24 07:36:54;;;;;;;15.20;9.50;;;;;;;;;;4987868;28;20311;-61
2023/07/24 07:39:19;;;;;;;14.55;9.73;;;;;;;;;;4988489;28;20264;-60
2023/07/24 07:41:45;;;;;;;13.80;10.80;;;;;;;;;;4987467;28;20682;-60
2023/07/24 07:44:10;;;;;;;15.18;9.40;;;;;;;;;;4986237;28;20213;-60
2023/07/24 07:46:35;;;;;;;14.38;9.52;;;;;;;;;;4988596;28;20225;-61
2023/07/24 07:49:01;;;;;;;13.52;9.43;;;;;;;;;;4985888;28;20213;-61
2023/07/24 07:51:27;;;;;;;15.77;10.27;;;;;;;;;;4986183;28;20216;-61
2023/07/24 07:53:52;;;;;;;13.23;9.45;;;;;;;;;;4988961;28;20227;-61
2023/07/24 07:56:17;;;;;;;13.63;10.13;;;;;;;;;;4988219;28;20221;-60
2023/07/24 07:58:43;;;;;;;13.15;8.70;;;;;;;;;;4983878;28;20302;-61
2023/07/24 08:01:08;;;;;;;18.83;9.85;;;;;;;;;;4987749;28;20300;-61
2023/07/24 08:03:34;;;;;;;12.13;9.75;;;;;;;;;;4988618;28;20287;-60
2023/07/24 08:05:59;;;;;;;16.63;9.82;;;;;;;;;;4986494;28;20205;-60
2023/07/24 08:08:25;;;;;;;15.18;9.90;;;;;;;;;;4985688;28;21112;-61
2023/07/24 08:10:50;;;;;;;12.65;9.57;;;;;;;;;;4988677;28;20672;-61
2023/07/24 08:13:15;;;;;;;13.07;9.80;;;;;;;;;;4984174;28;20209;-60
2023/07/24 08:15:41;;;;;;;12.93;9.32;;;;;;;;;;4986518;28;20231;-61
2023/07/24 08:18:06;;;;;;;16.27;9.95;;;;;;;;;;4991849;28;20209;-60
2023/07/24 08:20:32;;;;;;;13.25;10.02;;;;;;;;;;4991807;28;20213;-60
2023/07/24 08:22:57;;;;;;;20.67;10.63;;;;;;;;;;4990739;28;20374;-61
2023/07/24 08:25:22;;;;;;;15.88;10.73;;;;;;;;;;4989338;28;20291;-61
2023/07/24 08:27:48;;;;;;;13.23;10.18;;;;;;;;;;4990124;28;20224;-61
2023/07/24 08:30:13;;;;;;;15.40;10.60;;;;;;;;;;4989096;28;20217;-61
2023/07/24 08:32:39;;;;;;;13.75;10.60;;;;;;;;;;4989515;28;20615;-60
2023/07/24 08:35:04;;;;;;;12.65;10.48;;;;;;;;;;4991667;28;20228;-61
2023/07/24 08:37:30;;;;;;;18.88;11.05;;;;;;;;;;4991443;28;20232;-60
2023/07/24 08:39:55;;;;;;;16.75;10.45;;;;;;;;;;4988903;28;20676;-61
2023/07/24 08:42:20;;;;;;;14.60;11.68;;;;;;;;;;4991146;28;20225;-60
2023/07/24 08:44:45;;;;;;;13.30;10.43;;;;;;;;;;4991754;28;20213;-61
2023/07/24 08:47:12;;;;;;;12.00;10.05;;;;;;;;;;4971338;28;20228;-60
2023/07/24 08:49:40;;;;;;;14.90;10.27;;;;;;;;;;4991187;28;20708;-60
2023/07/24 08:52:05;;;;;;;16.42;9.60;;;;;;;;;;4974258;28;20670;-60
2023/07/24 08:54:31;;;;;;;11.10;8.77;;;;;;;;;;4990344;28;20213;-60
2023/07/24 08:56:56;;;;;;;11.27;8.35;;;;;;;;;;4989812;28;20228;-60
2023/07/24 08:59:21;;;;;;;11.70;8.85;;;;;;;;;;4990513;28;20217;-60
2023/07/24 09:01:47;;;;;;;13.43;9.13;;;;;;;;;;4990988;28;20225;-60
2023/07/24 09:04:12;;;;;;;12.48;9.68;;;;;;;;;;4988640;28;20579;-60
2023/07/24 09:06:38;;;;;;;11.55;8.68;;;;;;;;;;4991463;28;20295;-60
2023/07/24 09:09:11;;;;;;;13.38;8.52;;;;;;;;;;4990527;28;20241;-60
2023/07/24 09:11:45;;;;;;;12.60;9.48;;;;;;;;;;4986954;28;20747;-60
2023/07/24 09:14:19;;;;;;;12.73;8.73;;;;;;;;;;4988277;28;20217;-60
2023/07/24 09:16:44;;;;;;;12.85;8.20;;;;;;;;;;4988386;28;20262;-60
2023/07/24 09:19:16;;;;;;;11.40;7.65;;;;;;;;;;4988822;28;20217;-60
2023/07/24 09:21:42;;;;;;;11.57;8.27;;;;;;;;;;4989271;28;20576;-61
2023/07/24 09:24:10;;;;;;;10.15;7.47;;;;;;;;;;4991709;28;20217;-60
2023/07/24 09:26:35;;;;;;;10.77;7.80;;;;;;;;;;4994318;28;20244;-60
2023/07/24 09:29:01;;;;;;;13.00;8.68;;;;;;;;;;4969965;28;20209;-60
2023/07/24 09:31:34;;;;;;;12.93;8.18;;;;;;;;;;4992018;28;20209;-60
2023/07/24 09:34:00;;;;;;;12.50;9.00;;;;;;;;;;4973273;28;20221;-60
2023/07/24 09:36:25;;;;;;;13.40;9.38;;;;;;;;;;4970495;28;20243;-61
2023/07/24 09:38:56;;;;;;;10.93;8.35;;;;;;;;;;4989089;28;20209;-61
2023/07/24 09:41:27;;;;;;;8.88;7.85;;;;;;;;;;4973015;28;20225;-61
2023/07/24 09:43:58;;;;;;;14.38;8.93;;;;;;;;;;4988136;28;20209;-61
2023/07/24 09:46:24;;;;;;;13.10;8.43;;;;;;;;;;4989316;28;20236;-61
2023/07/24 09:48:49;;;;;;;13.88;9.15;;;;;;;;;;4990872;28;20252;-61
2023/07/24 09:51:14;;;;;;;10.48;8.82;;;;;;;;;;4989159;28;20209;-61
2023/07/24 09:53:48;;;;;;;8.75;7.68;;;;;;;;;;4988796;28;20228;-61
2023/07/24 09:56:13;;;;;;;11.35;8.90;;;;;;;;;;4973034;28;20260;-61
2023/07/24 09:58:39;;;;;;;12.25;8.23;;;;;;;;;;4989973;28;20299;-61
2023/07/24 10:01:07;;;;;;;12.25;9.05;;;;;;;;;;4988246;28;20551;-61
2023/07/24 10:03:33;;;;;;;13.15;8.50;;;;;;;;;;4989973;28;20213;-61
2023/07/24 10:05:59;;;;;;;11.35;8.38;;;;;;;;;;4989844;28;20220;-61
2023/07/24 10:08:24;;;;;;;13.90;8.43;;;;;;;;;;4967986;28;20221;-61
2023/07/24 10:10:52;;;;;;;10.02;8.50;;;;;;;;;;4967572;28;20259;-61
2023/07/24 10:13:17;;;;;;;10.25;8.10;;;;;;;;;;4989369;28;20214;-61
2023/07/24 10:15:42;;;;;;;11.80;7.82;;;;;;;;;;4990576;28;20239;-61
2023/07/24 10:18:08;;;;;;;11.73;7.57;;;;;;;;;;4968960;28;20217;-61
2023/07/24 10:20:34;;;;;;;9.40;7.75;;;;;;;;;;4990325;28;20216;-61
2023/07/24 10:23:01;;;;;;;12.65;8.70;;;;;;;;;;4990197;28;20224;-60
2023/07/24 10:25:31;;;;;;;13.68;8.57;;;;;;;;;;4987438;28;20208;-61
2023/07/24 10:28:00;;;;;;;12.57;8.23;;;;;;;;;;4971138;28;20295;-61
2023/07/24 10:30:28;;;;;;;12.07;8.70;;;;;;;;;;4989636;28;20260;-61
2023/07/24 10:32:53;;;;;;;10.93;8.40;;;;;;;;;;4989455;28;20217;-61
2023/07/24 10:35:20;;;;;;;11.15;7.93;;;;;;;;;;4986945;28;20221;-60
2023/07/24 10:37:46;;;;;;;12.73;8.23;;;;;;;;;;4989888;28;20209;-61
2023/07/24 10:40:19;;;;;;;12.40;7.85;;;;;;;;;;4988722;28;20232;-61
2023/07/24 10:42:44;;;;;;;10.98;7.20;;;;;;;;;;4988139;28;20224;-61
2023/07/24 10:45:10;;;;;;;13.10;7.20;;;;;;;;;;4970679;28;20217;-61
2023/07/24 10:47:35;;;;;;;11.75;7.82;;;;;;;;;;4988876;28;20327;-61
2023/07/24 10:50:02;;;;;;;11.90;6.80;;;;;;;;;;4988875;28;20220;-61
2023/07/24 10:52:29;;;;;;;12.15;7.15;;;;;;;;;;4987472;28;20205;-61
2023/07/24 10:54:55;;;;;;;8.82;6.30;;;;;;;;;;4989249;28;20251;-61
2023/07/24 10:57:25;;;;;;;11.05;7.63;;;;;;;;;;4988908;28;20816;-61
2023/07/24 10:59:50;;;;;;;12.45;7.22;;;;;;;;;;4988158;28;20721;-61
2023/07/24 11:02:16;;;;;;;12.55;7.32;;;;;;;;;;4987666;28;20209;-61
2023/07/24 11:04:41;;;;;;;13.43;8.57;;;;;;;;;;4972071;28;21333;-61
2023/07/24 11:07:07;;;;;;;12.70;7.97;;;;;;;;;;4987315;28;20216;-61
2023/07/24 11:09:40;;;;;;;12.68;7.63;;;;;;;;;;4987739;28;20225;-60
2023/07/24 11:12:12;;;;;;;9.88;7.63;;;;;;;;;;4988789;28;20220;-61
2023/07/24 11:14:50;;;;;;;11.55;7.80;;;;;;;;;;4986880;28;20216;-60
2023/07/24 11:17:15;;;;;;;10.98;7.63;;;;;;;;;;4987517;28;20240;-61
2023/07/24 11:19:40;;;;;;;11.02;7.72;;;;;;;;;;4988002;28;20654;-61
2023/07/24 11:22:06;;;;;;;12.73;7.78;;;;;;;;;;4987897;28;20291;-61
2023/07/24 11:24:32;;;;;;;11.50;8.15;;;;;;;;;;4989167;28;20299;-61
2023/07/24 11:26:57;;;;;;;13.02;8.55;;;;;;;;;;4986679;28;20324;-61
2023/07/24 11:29:23;;;;;;;12.27;8.25;;;;;;;;;;4987865;28;20295;-61
2023/07/24 11:31:53;;;;;;;13.52;8.65;;;;;;;;;;4989219;28;20225;-61
2023/07/24 11:34:19;;;;;;;10.27;8.30;;;;;;;;;;4986888;28;20209;-60
2023/07/24 11:36:44;;;;;;;12.57;8.50;;;;;;;;;;4987153;28;20225;-61
2023/07/24 11:39:09;;;;;;;14.77;8.85;;;;;;;;;;4970546;28;20650;-61
2023/07/24 11:41:34;;;;;;;13.18;9.00;;;;;;;;;;4988028;28;20641;-61
2023/07/24 11:44:00;;;;;;;12.23;8.73;;;;;;;;;;4986381;28;20225;-61
2023/07/24 11:46:26;;;;;;;13.10;9.13;;;;;;;;;;4988862;28;20609;-61
2023/07/24 11:48:53;;;;;;;12.98;8.90;;;;;;;;;;4988779;28;20716;-60
2023/07/24 11:51:18;;;;;;;12.05;8.98;;;;;;;;;;4984467;28;20279;-61
2023/07/24 11:53:44;;;;;;;11.65;9.48;;;;;;;;;;4988454;28;20217;-61
2023/07/24 11:56:13;;;;;;;12.05;10.00;;;;;;;;;;4988272;28;20229;-61
2023/07/24 11:58:38;;;;;;;12.00;10.05;;;;;;;;;;4987630;28;20308;-61
2023/07/24 12:01:03;;;;;;;14.10;10.40;;;;;;;;;;4987164;28;20320;-61
2023/07/24 12:03:29;;;;;;;17.00;9.82;;;;;;;;;;4981198;28;20791;-61
2023/07/24 12:05:55;;;;;;;14.23;9.25;;;;;;;;;;4988340;28;20753;-61
2023/07/24 12:08:23;;;;;;;11.60;9.52;;;;;;;;;;4968538;28;20231;-61
2023/07/24 12:10:49;;;;;;;12.68;9.02;;;;;;;;;;4988110;28;20239;-61
2023/07/24 12:13:14;;;;;;;12.48;8.25;;;;;;;;;;4988062;28;20245;-61
2023/07/24 12:15:39;;;;;;;11.95;8.43;;;;;;;;;;4987029;28;20231;-60
2023/07/24 12:18:05;;;;;;;14.50;8.30;;;;;;;;;;4986500;28;20224;-61
2023/07/24 12:20:31;;;;;;;10.30;8.02;;;;;;;;;;4989058;28;20263;-61
2023/07/24 12:22:56;;;;;;;13.13;8.05;;;;;;;;;;4987608;28;20737;-61
2023/07/24 12:25:22;;;;;;;10.68;8.45;;;;;;;;;;4985710;28;20247;-60
2023/07/24 12:27:47;;;;;;;11.27;8.23;;;;;;;;;;4988745;28;20752;-60
2023/07/24 12:30:13;;;;;;;15.30;7.68;;;;;;;;;;4988229;28;20213;-61
2023/07/24 12:32:38;;;;;;;12.10;7.63;;;;;;;;;;4982467;28;20210;-61
2023/07/24 12:35:04;;;;;;;10.95;7.10;;;;;;;;;;4987138;28;20295;-60
2023/07/24 12:37:29;;;;;;;13.05;6.90;;;;;;;;;;4987731;28;20221;-60
2023/07/24 12:39:55;;;;;;;13.40;7.10;;;;;;;;;;4986061;28;20573;-61
2023/07/24 12:42:20;;;;;;;13.38;6.82;;;;;;;;;;4986796;28;20236;-61
2023/07/24 12:44:45;;;;;;;8.75;6.00;;;;;;;;;;4984552;28;20209;-61
2023/07/24 12:47:11;;;;;;;12.48;6.28;;;;;;;;;;4984248;28;20220;-61
2023/07/24 12:49:37;;;;;;;8.27;6.32;;;;;;;;;;4986270;28;20237;-61
2023/07/24 12:52:02;;;;;;;12.05;6.65;;;;;;;;;;4985833;28;20237;-61
2023/07/24 12:54:28;;;;;;;11.52;6.10;;;;;;;;;;4986449;28;20214;-61
2023/07/24 12:56:53;;;;;;;9.38;5.43;;;;;;;;;;4985965;28;20221;-61
2023/07/24 12:59:18;;;;;;;11.20;5.68;;;;;;;;;;4987334;28;20608;-60
2023/07/24 13:01:44;;;;;;;8.65;5.05;;;;;;;;;;4984932;28;20228;-61
2023/07/24 13:04:09;;;;;;;10.13;6.05;;;;;;;;;;4988914;28;20814;-61
2023/07/24 13:06:35;;;;;;;11.65;5.72;;;;;;;;;;4990108;28;20303;-61
2023/07/24 13:09:00;;;;;;;9.15;4.80;;;;;;;;;;4989839;28;21093;-61
2023/07/24 13:11:27;;;;;;;13.10;6.85;;;;;;;;;;4990924;28;20225;-61
2023/07/24 13:13:53;;;;;;;10.68;6.75;;;;;;;;;;4988506;28;20219;-61
2023/07/24 13:16:18;;;;;;;12.32;6.53;;;;;;;;;;4990574;28;20283;-61
2023/07/24 13:18:44;;;;;;;11.32;6.00;;;;;;;;;;4971773;28;20217;-61
2023/07/24 13:21:09;;;;;;;12.35;5.65;;;;;;;;;;4988144;28;20626;-61
2023/07/24 13:23:35;;;;;;;9.13;4.72;;;;;;;;;;4990576;28;20209;-60
2023/07/24 13:26:00;;;;;;;7.25;4.20;;;;;;;;;;4990828;28;20225;-61
2023/07/24 13:28:25;;;;;;;7.25;3.38;;;;;;;;;;4987923;28;20217;-61
2023/07/24 13:30:51;;;;;;;9.38;4.35;;;;;;;;;;4983934;28;20310;-61
2023/07/24 13:33:16;;;;;;;7.30;3.35;;;;;;;;;;4982392;28;20221;-61
2023/07/24 13:35:42;;;;;;;6.88;3.20;;;;;;;;;;4974500;28;20217;-61
2023/07/24 13:38:08;;;;;;;9.02;3.58;;;;;;;;;;4974605;28;20213;-61
2023/07/24 13:40:34;;;;;;;6.03;3.05;;;;;;;;;;4980481;28;20268;-61
2023/07/24 13:42:59;;;;;;;5.88;3.20;;;;;;;;;;4984037;28;20221;-61
2023/07/24 13:45:24;;;;;;;7.70;3.28;;;;;;;;;;4982769;28;20603;-61
2023/07/24 13:47:50;;;;;;;7.22;3.05;;;;;;;;;;4983223;28;20235;-61
2023/07/24 13:50:15;;;;;;;10.30;3.70;;;;;;;;;;4983318;28;20224;-61
2023/07/24 13:52:40;;;;;;;7.82;3.58;;;;;;;;;;4984247;28;20232;-61
2023/07/24 13:55:06;;;;;;;9.85;3.88;;;;;;;;;;4981976;28;20225;-61
2023/07/24 13:57:31;;;;;;;9.55;3.45;;;;;;;;;;4975313;28;20236;-61
2023/07/24 13:59:57;;;;;;;5.35;3.10;;;;;;;;;;4977673;28;20259;-61
2023/07/24 14:02:22;;;;;;;6.40;3.05;;;;;;;;;;4975650;28;20217;-62
2023/07/24 14:04:48;;;;;;;6.70;3.55;;;;;;;;;;4982876;28;20221;-61
2023/07/24 14:07:13;;;;;;;5.25;3.35;;;;;;;;;;4984131;28;20737;-61
2023/07/24 14:09:38;;;;;;;7.10;3.72;;;;;;;;;;4982597;28;20227;-61
2023/07/24 14:12:04;;;;;;;8.55;3.65;;;;;;;;;;4982699;28;20224;-61
2023/07/24 14:14:29;;;;;;;6.82;3.60;;;;;;;;;;4984146;28;20209;-61
2023/07/24 14:16:54;;;;;;;6.90;3.55;;;;;;;;;;4982784;28;20229;-61
2023/07/24 14:19:20;;;;;;;7.78;3.58;;;;;;;;;;4976476;28;20229;-61
2023/07/24 14:21:45;;;;;;;11.35;3.67;;;;;;;;;;4976539;28;20216;-61
2023/07/24 14:24:10;;;;;;;11.00;3.42;;;;;;;;;;4976552;28;20252;-61
2023/07/24 14:26:37;;;;;;;8.82;3.72;;;;;;;;;;4979073;28;20208;-61